createdAt,value
2022-12-12T00:02:11.824Z,62.78
2022-12-12T00:04:38.557Z,62.96
2022-12-12T00:07:05.580Z,62.64
2022-12-12T00:09:33.006Z,63.20
2022-12-12T00:11:59.702Z,62.52
2022-12-12T00:14:26.388Z,62.98
2022-12-12T00:16:53.090Z,62.81
2022-12-12T00:19:19.794Z,62.79
2022-12-12T00:21:47.127Z,63.16
2022-12-12T00:24:13.798Z,63.12
2022-12-12T00:26:40.488Z,63.04
2022-12-12T00:29:07.555Z,63.18
2022-12-12T00:31:34.224Z,63.81
2022-12-12T00:34:00.988Z,63.92
2022-12-12T00:36:30.941Z,63.97
2022-12-12T00:38:58.336Z,63.64
2022-12-12T00:41:25.115Z,64.50
2022-12-12T00:43:51.805Z,64.62
2022-12-12T00:46:21.546Z,63.85
2022-12-12T00:48:48.368Z,63.87
2022-12-12T00:51:21.184Z,64.27
2022-12-12T00:53:48.713Z,65.19
2022-12-12T00:56:17.222Z,65.13
2022-12-12T00:58:43.944Z,65.57
2022-12-12T01:01:13.742Z,65.76
2022-12-12T01:03:42.232Z,65.63
2022-12-12T01:06:10.321Z,65.51
2022-12-12T01:08:38.032Z,65.51
2022-12-12T01:11:05.952Z,65.64
2022-12-12T01:13:32.896Z,65.36
2022-12-12T01:15:59.765Z,65.02
2022-12-12T01:18:26.712Z,65.30
2022-12-12T01:20:53.821Z,65.58
2022-12-12T01:23:20.490Z,66.11
2022-12-12T01:25:47.205Z,66.66
2022-12-12T01:28:14.581Z,66.24
2022-12-12T01:30:41.313Z,66.02
2022-12-12T01:33:07.992Z,65.66
2022-12-12T01:35:35.027Z,65.24
2022-12-12T01:38:01.797Z,65.08
2022-12-12T01:40:30.699Z,64.89
2022-12-12T01:42:59.428Z,64.86
2022-12-12T01:45:54.170Z,65.02
2022-12-12T01:48:23.516Z,65.45
2022-12-12T01:50:51.043Z,65.87
2022-12-12T01:53:19.361Z,65.38
2022-12-12T01:55:48.030Z,65.39
2022-12-12T01:58:16.108Z,65.94
2022-12-12T02:00:43.377Z,65.52
2022-12-12T02:03:10.297Z,65.39
2022-12-12T02:05:44.964Z,64.90
2022-12-12T02:08:13.068Z,65.07
2022-12-12T02:10:39.819Z,65.07
2022-12-12T02:13:11.028Z,64.48
2022-12-12T02:16:04.196Z,64.58
2022-12-12T02:18:57.054Z,64.80
2022-12-12T02:21:41.621Z,64.82
2022-12-12T02:24:44.735Z,64.28
2022-12-12T02:27:23.272Z,64.96
2022-12-12T02:30:11.000Z,64.74
2022-12-12T02:32:55.951Z,64.67
2022-12-12T02:35:31.010Z,64.71
2022-12-12T02:38:15.801Z,64.35
2022-12-12T02:41:07.632Z,65.09
2022-12-12T02:43:44.822Z,64.78
2022-12-12T02:46:24.266Z,64.61
2022-12-12T02:48:54.312Z,65.29
2022-12-12T02:51:22.458Z,65.12
2022-12-12T02:53:49.157Z,65.35
2022-12-12T02:56:54.981Z,64.66
2022-12-12T02:59:35.305Z,64.61
2022-12-12T03:02:26.688Z,64.08
2022-12-12T03:05:43.189Z,63.44
2022-12-12T03:08:31.702Z,63.87
2022-12-12T03:11:13.443Z,62.88
2022-12-12T03:14:05.249Z,63.35
2022-12-12T03:17:00.993Z,63.40
2022-12-12T03:19:36.544Z,61.79
2022-12-12T03:22:26.227Z,61.86
2022-12-12T03:25:34.477Z,61.98
2022-12-12T03:28:15.013Z,62.29
2022-12-12T03:30:46.770Z,62.41
2022-12-12T03:33:22.092Z,61.86
2022-12-12T03:35:55.521Z,61.74
2022-12-12T03:38:28.858Z,61.20
2022-12-12T03:41:01.295Z,61.03
2022-12-12T03:43:35.475Z,60.69
2022-12-12T03:46:20.761Z,60.73
2022-12-12T03:48:55.616Z,59.66
2022-12-12T03:51:27.722Z,60.26
2022-12-12T03:54:08.741Z,59.72
2022-12-12T03:56:47.432Z,60.68
2022-12-12T03:59:36.621Z,61.02
2022-12-12T04:02:21.693Z,61.82
2022-12-12T04:05:00.281Z,61.42
2022-12-12T04:07:34.359Z,61.60
2022-12-12T04:10:19.692Z,61.65
2022-12-12T04:13:15.872Z,61.86
2022-12-12T04:15:46.808Z,61.59
2022-12-12T04:18:13.434Z,61.41
2022-12-12T04:21:09.900Z,60.69
2022-12-12T04:23:47.535Z,60.63
2022-12-12T04:26:39.232Z,60.33
2022-12-12T04:29:16.924Z,61.08
2022-12-12T04:32:06.953Z,60.77
2022-12-12T04:34:42.638Z,60.07
2022-12-12T04:37:13.735Z,60.60
2022-12-12T04:39:43.031Z,60.96
2022-12-12T04:42:14.649Z,60.83
2022-12-12T04:44:44.746Z,60.39
2022-12-12T04:47:14.027Z,59.83
2022-12-12T04:49:45.001Z,59.56
2022-12-12T04:52:15.270Z,59.71
2022-12-12T04:54:51.033Z,60.81
2022-12-12T04:57:25.587Z,60.48
2022-12-12T04:59:52.401Z,60.56
2022-12-12T05:02:39.846Z,61.22
2022-12-12T05:05:12.478Z,60.63
2022-12-12T05:07:40.670Z,60.69
2022-12-12T05:10:11.929Z,61.01
2022-12-12T05:12:57.275Z,61.32
2022-12-12T05:15:24.192Z,61.57
2022-12-12T05:18:03.140Z,61.90
2022-12-12T05:20:29.872Z,61.67
2022-12-12T05:22:56.508Z,61.52
2022-12-12T05:25:23.221Z,61.63
2022-12-12T05:27:49.855Z,61.78
2022-12-12T05:30:16.644Z,62.06
2022-12-12T05:32:43.289Z,62.79
2022-12-12T05:35:11.286Z,62.41
2022-12-12T05:37:38.195Z,62.55
2022-12-12T05:40:06.959Z,62.20
2022-12-12T05:42:33.595Z,61.83
2022-12-12T05:45:00.973Z,61.89
2022-12-12T05:47:27.613Z,61.94
2022-12-12T05:49:54.296Z,62.28
2022-12-12T05:52:21.288Z,62.20
2022-12-12T05:54:47.947Z,62.38
2022-12-12T05:57:14.679Z,62.05
2022-12-12T05:59:41.358Z,62.40
2022-12-12T06:02:08.010Z,62.47
2022-12-12T06:04:34.809Z,61.71
2022-12-12T06:07:01.520Z,61.80
2022-12-12T06:09:28.269Z,62.63
2022-12-12T06:11:54.891Z,63.32
2022-12-12T06:14:21.667Z,63.45
2022-12-12T06:16:48.318Z,63.11
2022-12-12T06:19:15.233Z,62.90
2022-12-12T06:21:41.868Z,62.88
2022-12-12T06:24:08.636Z,62.94
2022-12-12T06:26:35.313Z,63.16
2022-12-12T06:29:02.103Z,62.60
2022-12-12T06:31:28.784Z,62.82
2022-12-12T06:33:55.499Z,62.72
2022-12-12T06:36:24.343Z,62.42
2022-12-12T06:38:51.951Z,61.64
2022-12-12T06:41:19.326Z,61.54
2022-12-12T06:43:46.242Z,61.53
2022-12-12T06:46:16.742Z,61.76
2022-12-12T06:48:44.359Z,61.60
2022-12-12T06:51:14.650Z,61.37
2022-12-12T06:53:41.836Z,61.00
2022-12-12T06:56:17.731Z,61.13
2022-12-12T06:58:44.777Z,61.39
2022-12-12T07:01:13.360Z,60.47
2022-12-12T07:03:40.115Z,60.11
2022-12-12T07:06:07.434Z,59.55
2022-12-12T07:08:35.528Z,59.81
2022-12-12T07:11:15.428Z,59.70
2022-12-12T07:13:42.767Z,60.19
2022-12-12T07:16:10.356Z,59.83
2022-12-12T07:18:37.128Z,59.52
2022-12-12T07:21:05.567Z,60.22
2022-12-12T07:23:32.782Z,60.20
2022-12-12T07:26:02.618Z,59.66
2022-12-12T07:28:29.270Z,60.00
2022-12-12T07:30:55.950Z,60.01
2022-12-12T07:33:22.654Z,60.37
2022-12-12T07:35:49.252Z,60.66
2022-12-12T07:38:15.927Z,60.48
2022-12-12T07:40:42.504Z,60.85
2022-12-12T07:43:09.197Z,61.05
2022-12-12T07:45:35.850Z,60.69
2022-12-12T07:48:02.583Z,60.73
2022-12-12T07:50:29.297Z,60.86
2022-12-12T07:52:56.005Z,60.74
2022-12-12T07:55:22.673Z,60.46
2022-12-12T07:57:49.988Z,60.01
2022-12-12T08:00:17.375Z,60.21
2022-12-12T08:02:44.074Z,59.85
2022-12-12T08:05:10.945Z,59.89
2022-12-12T08:07:37.771Z,60.12
2022-12-12T08:10:05.692Z,60.12
2022-12-12T08:12:32.920Z,59.83
2022-12-12T08:14:59.579Z,59.85
2022-12-12T08:17:26.231Z,60.53
2022-12-12T08:19:52.914Z,59.76
2022-12-12T08:22:20.046Z,60.35
2022-12-12T08:24:48.940Z,60.74
2022-12-12T08:27:16.129Z,60.37
2022-12-12T08:29:43.565Z,59.58
2022-12-12T08:32:10.252Z,59.26
2022-12-12T08:34:36.892Z,58.91
2022-12-12T08:37:03.594Z,59.21
2022-12-12T08:39:31.589Z,59.55
2022-12-12T08:41:58.511Z,59.11
2022-12-12T08:44:25.209Z,58.99
2022-12-12T08:46:51.948Z,58.65
2022-12-12T08:49:18.712Z,58.80
2022-12-12T08:51:45.535Z,57.79
2022-12-12T08:54:13.052Z,57.42
2022-12-12T08:56:40.485Z,57.46
2022-12-12T08:59:07.206Z,57.54
2022-12-12T09:01:34.109Z,56.97
2022-12-12T09:04:01.604Z,56.83
2022-12-12T09:06:28.353Z,56.51
2022-12-12T09:08:56.205Z,55.59
2022-12-12T09:11:23.718Z,57.00
2022-12-12T09:13:51.887Z,57.13
2022-12-12T09:16:19.792Z,57.91
2022-12-12T09:18:49.266Z,58.50
2022-12-12T09:21:16.979Z,58.48
2022-12-12T09:23:43.653Z,58.80
2022-12-12T09:26:10.899Z,58.38
2022-12-12T09:28:37.721Z,58.36
2022-12-12T09:31:06.828Z,56.96
2022-12-12T09:33:35.128Z,57.28
2022-12-12T09:36:04.365Z,57.95
2022-12-12T09:38:31.605Z,57.08
2022-12-12T09:41:00.555Z,57.29
2022-12-12T09:43:33.214Z,57.02
2022-12-12T09:46:03.021Z,57.54
2022-12-12T09:48:41.375Z,56.82
2022-12-12T09:51:09.624Z,56.96
2022-12-12T09:53:37.396Z,57.54
2022-12-12T09:56:29.896Z,58.08
2022-12-12T09:59:05.445Z,56.86
2022-12-12T10:01:44.575Z,57.96
2022-12-12T10:04:38.167Z,58.44
2022-12-12T10:07:25.959Z,58.11
2022-12-12T10:10:23.172Z,57.31
2022-12-12T10:12:51.433Z,56.70
2022-12-12T10:15:29.668Z,55.56
2022-12-12T10:18:00.206Z,55.80
2022-12-12T10:20:32.204Z,55.84
2022-12-12T10:23:20.659Z,54.57
2022-12-12T10:25:56.847Z,54.56
2022-12-12T10:28:26.039Z,54.55
2022-12-12T10:31:30.438Z,54.95
2022-12-12T10:34:12.483Z,54.86
2022-12-12T10:37:10.660Z,54.24
2022-12-12T10:39:56.128Z,52.28
2022-12-12T10:42:57.871Z,44.25
2022-12-12T10:45:30.607Z,41.15
2022-12-12T10:47:57.409Z,38.60
2022-12-12T10:50:26.765Z,37.51
2022-12-12T10:52:54.001Z,38.79
2022-12-12T10:55:49.576Z,37.46
2022-12-12T10:58:19.878Z,40.29
2022-12-12T11:00:48.981Z,41.92
2022-12-12T11:03:36.073Z,42.28
2022-12-12T11:06:15.378Z,42.09
2022-12-12T11:08:53.843Z,40.11
2022-12-12T11:11:24.020Z,39.10
2022-12-12T11:14:03.105Z,39.26
2022-12-12T11:16:41.101Z,38.75
2022-12-12T11:19:20.127Z,38.07
2022-12-12T11:21:47.827Z,36.57
2022-12-12T11:24:29.508Z,34.24
2022-12-12T11:26:59.403Z,31.84
2022-12-12T11:29:46.645Z,30.78
2022-12-12T11:32:20.735Z,29.62
2022-12-12T11:34:51.468Z,28.76
2022-12-12T11:37:21.822Z,27.97
2022-12-12T11:39:53.183Z,26.92
2022-12-12T11:42:31.087Z,25.50
2022-12-12T11:45:04.912Z,25.94
2022-12-12T11:47:40.675Z,25.66
2022-12-12T11:50:29.051Z,24.88
2022-12-12T11:53:03.198Z,25.03
2022-12-12T11:55:57.643Z,24.38
2022-12-12T11:58:32.467Z,25.07
2022-12-12T12:01:25.827Z,26.12
2022-12-12T12:04:11.370Z,27.22
2022-12-12T12:06:49.466Z,27.89
2022-12-12T12:09:31.935Z,28.61
2022-12-12T12:12:12.979Z,29.74
2022-12-12T12:14:52.082Z,32.27
2022-12-12T12:17:21.720Z,33.55
2022-12-12T12:20:03.342Z,34.65
2022-12-12T12:23:04.175Z,36.39
2022-12-12T12:25:45.826Z,38.39
2022-12-12T12:28:52.726Z,40.93
2022-12-12T12:31:40.898Z,42.75
2022-12-12T12:34:18.877Z,43.29
2022-12-12T12:36:45.572Z,44.12
2022-12-12T12:39:52.994Z,44.88
2022-12-12T12:42:38.249Z,45.41
2022-12-12T12:45:21.483Z,45.77
2022-12-12T12:47:55.931Z,46.03
2022-12-12T12:50:40.897Z,46.59
2022-12-12T12:53:33.504Z,47.00
2022-12-12T12:56:07.742Z,48.00
2022-12-12T12:58:42.774Z,48.00
2022-12-12T13:01:14.731Z,48.47
2022-12-12T13:03:51.948Z,48.28
2022-12-12T13:06:32.738Z,48.79
2022-12-12T13:09:20.922Z,48.58
2022-12-12T13:11:50.668Z,49.58
2022-12-12T13:14:41.435Z,49.73
2022-12-12T13:17:17.254Z,49.35
2022-12-12T13:19:47.069Z,48.15
2022-12-12T13:22:51.293Z,48.61
2022-12-12T13:25:30.977Z,48.62
2022-12-12T13:28:00.859Z,48.41
2022-12-12T13:30:45.783Z,48.84
2022-12-12T13:33:29.686Z,47.45
2022-12-12T13:36:08.729Z,47.78
2022-12-12T13:38:35.812Z,46.90
2022-12-12T13:41:06.513Z,47.10
2022-12-12T13:43:33.075Z,46.53
2022-12-12T13:46:28.628Z,47.05
2022-12-12T13:49:07.163Z,47.76
2022-12-12T13:51:44.613Z,47.04
2022-12-12T13:54:14.480Z,46.50
2022-12-12T13:56:47.834Z,45.53
2022-12-12T13:59:23.643Z,45.17
2022-12-12T14:01:52.758Z,45.16
2022-12-12T14:04:43.854Z,45.33
2022-12-12T14:07:25.377Z,45.46
2022-12-12T14:09:55.915Z,45.31
2022-12-12T14:12:32.004Z,46.04
2022-12-12T14:15:02.172Z,46.33
2022-12-12T14:17:38.393Z,46.38
2022-12-12T14:20:25.103Z,47.12
2022-12-12T14:22:51.659Z,45.70
2022-12-12T14:25:36.348Z,46.45
2022-12-12T14:28:13.574Z,46.84
2022-12-12T14:30:47.433Z,47.10
2022-12-12T14:33:17.087Z,46.90
2022-12-12T14:36:02.148Z,46.57
2022-12-12T14:39:06.957Z,46.52
2022-12-12T14:41:37.915Z,46.45
2022-12-12T14:44:36.147Z,46.12
2022-12-12T14:47:07.684Z,46.82
2022-12-12T14:49:34.491Z,46.74
2022-12-12T14:52:01.546Z,46.55
2022-12-12T14:54:28.285Z,47.31
2022-12-12T14:57:04.076Z,46.37
2022-12-12T14:59:39.813Z,47.10
2022-12-12T15:02:15.952Z,47.18
2022-12-12T15:04:47.050Z,46.59
2022-12-12T15:07:28.604Z,47.12
2022-12-12T15:09:55.312Z,48.04
2022-12-12T15:12:24.909Z,47.93
2022-12-12T15:14:55.078Z,48.15
2022-12-12T15:17:30.971Z,47.82
2022-12-12T15:20:01.647Z,48.04
2022-12-12T15:22:28.332Z,47.54
2022-12-12T15:24:57.275Z,47.70
2022-12-12T15:27:41.976Z,48.19
2022-12-12T15:30:28.878Z,48.40
2022-12-12T15:32:55.721Z,49.32
2022-12-12T15:35:23.376Z,49.65
2022-12-12T15:38:01.773Z,50.22
2022-12-12T15:40:30.818Z,50.56
2022-12-12T15:43:07.121Z,50.85
2022-12-12T15:45:37.814Z,51.60
2022-12-12T15:48:06.159Z,51.00
2022-12-12T15:50:38.556Z,49.75
2022-12-12T15:53:32.526Z,50.11
2022-12-12T15:55:59.156Z,50.36
2022-12-12T15:58:35.527Z,50.14
2022-12-12T16:01:20.844Z,50.96
2022-12-12T16:04:26.002Z,51.36
2022-12-12T16:06:52.747Z,51.52
2022-12-12T16:09:22.064Z,52.09
2022-12-12T16:11:54.385Z,52.69
2022-12-12T16:14:40.668Z,52.80
2022-12-12T16:17:20.691Z,52.56
2022-12-12T16:20:05.961Z,52.50
2022-12-12T16:22:35.783Z,52.90
2022-12-12T16:25:11.557Z,52.90
2022-12-12T16:27:38.264Z,53.15
2022-12-12T16:30:05.708Z,53.31
2022-12-12T16:32:32.387Z,53.58
2022-12-12T16:34:59.081Z,53.28
2022-12-12T16:37:25.750Z,53.71
2022-12-12T16:39:52.631Z,53.93
2022-12-12T16:42:20.939Z,53.74
2022-12-12T16:44:47.758Z,54.27
2022-12-12T16:47:19.671Z,54.62
2022-12-12T16:49:46.955Z,54.55
2022-12-12T16:52:18.652Z,54.38
2022-12-12T16:54:52.796Z,54.79
2022-12-12T16:57:21.505Z,55.13
2022-12-12T16:59:48.274Z,55.59
2022-12-12T17:02:20.840Z,55.65
2022-12-12T17:04:48.700Z,56.15
2022-12-12T17:07:16.262Z,56.37
2022-12-12T17:09:43.219Z,56.66
2022-12-12T17:12:11.707Z,57.23
2022-12-12T17:14:38.610Z,57.24
2022-12-12T17:17:05.473Z,57.79
2022-12-12T17:19:32.660Z,58.16
2022-12-12T17:21:59.640Z,58.26
2022-12-12T17:24:26.839Z,58.48
2022-12-12T17:26:53.760Z,58.21
2022-12-12T17:29:21.808Z,58.27
2022-12-12T17:31:48.694Z,58.33
2022-12-12T17:34:15.768Z,58.63
2022-12-12T17:36:42.616Z,58.87
2022-12-12T17:39:10.942Z,59.26
2022-12-12T17:41:37.863Z,59.34
2022-12-12T17:44:05.132Z,59.78
2022-12-12T17:46:32.431Z,59.85
2022-12-12T17:49:01.777Z,59.62
2022-12-12T17:51:29.543Z,59.67
2022-12-12T17:53:56.600Z,59.51
2022-12-12T17:56:24.748Z,59.31
2022-12-12T17:58:52.435Z,59.01
2022-12-12T18:01:31.607Z,59.58
2022-12-12T18:03:59.821Z,59.20
2022-12-12T18:06:29.225Z,59.17
2022-12-12T18:08:56.873Z,59.33
2022-12-12T18:11:27.376Z,59.73
2022-12-12T18:13:57.730Z,59.69
2022-12-12T18:16:27.143Z,59.56
2022-12-12T18:18:56.108Z,59.82
2022-12-12T18:21:59.235Z,60.15
2022-12-12T18:24:13.812Z,60.43
2022-12-12T18:26:41.056Z,60.13
2022-12-12T18:29:08.758Z,60.56
2022-12-12T18:31:35.726Z,60.59
2022-12-12T18:34:03.459Z,60.91
2022-12-12T18:36:31.356Z,61.63
2022-12-12T18:39:00.332Z,62.05
2022-12-12T18:41:28.382Z,62.54
2022-12-12T18:43:55.619Z,63.00
2022-12-12T18:46:24.673Z,63.46
2022-12-12T18:48:51.484Z,63.44
2022-12-12T18:51:23.756Z,63.93
2022-12-12T18:53:52.252Z,63.98
2022-12-12T18:56:24.491Z,63.64
2022-12-12T18:58:55.559Z,63.90
2022-12-12T19:01:24.946Z,63.88
2022-12-12T19:03:53.403Z,64.33
2022-12-12T19:06:22.668Z,64.38
2022-12-12T19:08:49.422Z,64.68
2022-12-12T19:11:16.763Z,64.82
2022-12-12T19:13:43.506Z,64.60
2022-12-12T19:16:13.323Z,65.28
2022-12-12T19:18:41.349Z,65.28
2022-12-12T19:21:13.570Z,64.86
2022-12-12T19:23:41.142Z,65.14
2022-12-12T19:26:10.963Z,65.44
2022-12-12T19:28:38.192Z,65.48
2022-12-12T19:31:10.516Z,64.77
2022-12-12T19:33:37.641Z,65.17
2022-12-12T19:36:16.871Z,65.37
2022-12-12T19:38:44.611Z,65.77
2022-12-12T19:41:14.092Z,65.38
2022-12-12T19:43:42.350Z,65.15
2022-12-12T19:46:12.147Z,65.04
2022-12-12T19:48:39.919Z,65.38
2022-12-12T19:51:18.479Z,65.31
2022-12-12T19:53:47.624Z,65.87
2022-12-12T19:56:17.024Z,66.00
2022-12-12T19:58:44.283Z,66.04
2022-12-12T20:01:18.157Z,66.49
2022-12-12T20:03:53.768Z,66.50
2022-12-12T20:06:20.933Z,66.67
2022-12-12T20:08:48.119Z,66.58
2022-12-12T20:11:21.128Z,66.73
2022-12-12T20:13:54.583Z,66.64
2022-12-12T20:16:24.695Z,67.45
2022-12-12T20:18:52.455Z,67.37
2022-12-12T20:21:59.140Z,67.21
2022-12-12T20:24:12.557Z,66.65
2022-12-12T20:26:40.712Z,66.93
2022-12-12T20:29:08.940Z,67.48
2022-12-12T20:31:38.017Z,66.83
2022-12-12T20:34:04.918Z,67.05
2022-12-12T20:36:34.221Z,67.14
2022-12-12T20:39:03.823Z,67.61
2022-12-12T20:41:34.473Z,67.53
2022-12-12T20:44:01.211Z,67.39
2022-12-12T20:46:33.820Z,67.18
2022-12-12T20:49:03.528Z,66.64
2022-12-12T20:51:54.662Z,66.68
2022-12-12T20:54:19.818Z,66.18
2022-12-12T20:56:46.782Z,66.17
2022-12-12T20:59:14.468Z,66.61
2022-12-12T21:01:41.433Z,66.21
2022-12-12T21:04:09.406Z,67.31
2022-12-12T21:06:39.738Z,66.58
2022-12-12T21:09:09.644Z,66.68
2022-12-12T21:11:38.042Z,66.75
2022-12-12T21:14:06.102Z,66.84
2022-12-12T21:16:36.015Z,66.89
2022-12-12T21:19:06.347Z,67.09
2022-12-12T21:21:33.237Z,66.83
2022-12-12T21:24:00.526Z,66.34
2022-12-12T21:26:29.633Z,66.60
2022-12-12T21:28:57.723Z,66.63
2022-12-12T21:31:27.993Z,66.93
2022-12-12T21:33:55.343Z,66.76
2022-12-12T21:36:23.520Z,66.55
2022-12-12T21:38:51.948Z,66.33
2022-12-12T21:41:21.551Z,66.75
2022-12-12T21:43:49.389Z,66.73
2022-12-12T21:46:22.534Z,66.81
2022-12-12T21:49:08.491Z,66.85
2022-12-12T21:51:35.745Z,66.47
2022-12-12T21:54:07.047Z,66.61
2022-12-12T21:56:34.074Z,66.74
2022-12-12T21:59:00.781Z,66.63
2022-12-12T22:01:27.802Z,66.83
2022-12-12T22:03:55.189Z,66.84
2022-12-12T22:06:25.727Z,66.87
2022-12-12T22:08:55.162Z,67.01
2022-12-12T22:11:39.751Z,67.10
2022-12-12T22:14:09.040Z,66.84
2022-12-12T22:16:35.804Z,66.92
2022-12-12T22:19:06.471Z,66.75
2022-12-12T22:21:34.299Z,66.72
2022-12-12T22:24:01.326Z,66.73
2022-12-12T22:26:34.362Z,66.94
2022-12-12T22:29:04.498Z,66.72
2022-12-12T22:31:35.340Z,66.30
2022-12-12T22:34:04.692Z,66.33
2022-12-12T22:36:34.895Z,66.83
2022-12-12T22:39:01.940Z,66.38
2022-12-12T22:41:29.475Z,66.23
2022-12-12T22:43:58.239Z,66.07
2022-12-12T22:46:26.308Z,66.05
2022-12-12T22:48:54.737Z,65.63
2022-12-12T22:51:24.832Z,65.93
2022-12-12T22:53:51.931Z,65.51
2022-12-12T22:56:18.626Z,65.71
2022-12-12T22:58:45.391Z,65.93
2022-12-12T23:01:18.384Z,65.44
2022-12-12T23:03:46.225Z,65.73
2022-12-12T23:06:22.996Z,66.00
2022-12-12T23:08:55.587Z,65.48
2022-12-12T23:11:23.518Z,65.80
2022-12-12T23:13:53.000Z,65.99
2022-12-12T23:16:21.973Z,65.61
2022-12-12T23:18:48.664Z,66.15
2022-12-12T23:21:18.345Z,66.33
2022-12-12T23:23:46.013Z,65.94
2022-12-12T23:26:15.959Z,65.91
2022-12-12T23:28:44.007Z,65.62
2022-12-12T23:31:18.696Z,65.82
2022-12-12T23:33:46.603Z,65.85
2022-12-12T23:36:15.429Z,65.79
2022-12-12T23:38:43.573Z,65.59
2022-12-12T23:41:12.992Z,65.72
2022-12-12T23:43:40.632Z,65.77
2022-12-12T23:46:28.028Z,65.96
2022-12-12T23:48:59.218Z,65.32
2022-12-12T23:51:28.310Z,65.09
2022-12-12T23:54:00.722Z,65.15
2022-12-12T23:56:28.236Z,65.35
2022-12-12T23:58:56.775Z,65.47
